createdAt,value
2017-11-30T06:29:46.262Z,1.67
2017-11-30T06:32:12.980Z,1.81
2017-11-30T06:34:39.628Z,1.93
2017-11-30T06:37:06.348Z,2.06
2017-11-30T06:39:33.761Z,2.07
2017-11-30T06:42:00.461Z,2.25
2017-11-30T06:44:27.940Z,2.19
2017-11-30T06:46:54.604Z,2.16
2017-11-30T06:49:21.242Z,2.23
2017-11-30T06:51:48.005Z,2.12
2017-11-30T06:54:14.696Z,2.17
2017-11-30T06:56:42.167Z,2.34
2017-11-30T06:59:08.880Z,2.25
2017-11-30T07:01:35.540Z,2.39
2017-11-30T07:04:02.991Z,2.35
2017-11-30T07:06:30.461Z,2.26
2017-11-30T07:08:57.899Z,2.19
2017-11-30T07:11:24.644Z,2.15
2017-11-30T07:13:51.351Z,2.24
2017-11-30T07:16:18.064Z,2.27
2017-11-30T07:18:44.745Z,2.02
2017-11-30T07:21:11.440Z,2.08
2017-11-30T07:23:38.104Z,2.17
2017-11-30T07:26:04.877Z,2.25
2017-11-30T07:28:31.550Z,2.23
2017-11-30T07:30:58.239Z,2.37
2017-11-30T07:33:24.924Z,2.38
2017-11-30T07:35:51.583Z,2.44
2017-11-30T07:38:18.281Z,2.44
2017-11-30T07:40:45.021Z,2.35
2017-11-30T07:43:11.707Z,2.42
2017-11-30T07:45:38.384Z,2.45
2017-11-30T07:48:05.057Z,2.53
2017-11-30T07:50:31.749Z,2.53
2017-11-30T07:52:59.185Z,2.42
2017-11-30T07:55:25.885Z,2.51
2017-11-30T07:57:52.562Z,2.49
2017-11-30T08:00:19.262Z,2.54
2017-11-30T08:02:45.947Z,2.61
2017-11-30T08:05:12.651Z,2.66
2017-11-30T08:07:39.358Z,2.65
2017-11-30T08:10:06.043Z,2.55
2017-11-30T08:12:32.729Z,2.50
2017-11-30T08:14:59.404Z,2.43
2017-11-30T08:17:26.089Z,2.44
2017-11-30T08:19:52.841Z,2.58
2017-11-30T08:22:19.483Z,2.44
2017-11-30T08:24:46.227Z,2.31
2017-11-30T08:27:14.670Z,2.41
2017-11-30T08:29:42.043Z,2.57
2017-11-30T08:32:08.748Z,2.51
2017-11-30T08:34:36.198Z,2.53
2017-11-30T08:37:02.915Z,2.44
2017-11-30T08:39:29.590Z,2.39
2017-11-30T08:41:56.292Z,2.34
2017-11-30T08:44:23.104Z,2.33
2017-11-30T08:46:49.889Z,2.41
2017-11-30T08:49:16.671Z,2.49
2017-11-30T08:51:43.442Z,2.61
2017-11-30T08:54:10.884Z,2.54
2017-11-30T08:56:37.644Z,2.57
2017-11-30T08:59:05.072Z,2.56
2017-11-30T09:01:31.760Z,2.45
2017-11-30T09:03:58.465Z,2.39
2017-11-30T09:06:25.174Z,2.60
2017-11-30T09:08:51.859Z,2.64
2017-11-30T09:11:18.516Z,2.44
2017-11-30T09:13:45.934Z,2.48
2017-11-30T09:16:12.641Z,2.58
2017-11-30T09:18:39.371Z,2.68
2017-11-30T09:21:06.046Z,2.84
2017-11-30T09:23:32.766Z,2.96
2017-11-30T09:26:00.263Z,3.36
2017-11-30T09:28:26.950Z,3.71
2017-11-30T09:30:53.589Z,4.01
2017-11-30T09:33:22.185Z,4.51
2017-11-30T09:40:24.014Z,5.47
2017-11-30T09:42:50.673Z,6.19
2017-11-30T09:45:17.438Z,6.64
2017-11-30T09:47:44.159Z,7.30
2017-11-30T09:50:10.852Z,7.44
2017-11-30T09:52:38.296Z,8.09
2017-11-30T09:55:05.006Z,8.43
2017-11-30T09:57:31.741Z,7.92
2017-11-30T09:59:58.440Z,7.87
2017-11-30T10:02:25.882Z,7.51
2017-11-30T10:04:53.345Z,7.32
2017-11-30T10:07:20.067Z,7.01
2017-11-30T10:09:46.756Z,6.60
2017-11-30T10:12:14.165Z,6.88
2017-11-30T10:14:40.847Z,7.12
2017-11-30T10:17:07.508Z,7.06
2017-11-30T10:19:34.892Z,6.74
2017-11-30T10:22:01.603Z,6.38
2017-11-30T10:24:29.054Z,6.10
2017-11-30T10:26:56.487Z,5.74
2017-11-30T10:29:23.156Z,5.57
2017-11-30T10:31:49.833Z,5.56
2017-11-30T10:34:16.523Z,5.25
2017-11-30T10:36:43.223Z,5.05
2017-11-30T10:39:09.933Z,4.94
2017-11-30T10:41:37.343Z,4.91
2017-11-30T10:44:04.048Z,5.36
2017-11-30T10:46:31.495Z,5.37
2017-11-30T10:48:58.907Z,5.19
2017-11-30T10:51:25.578Z,5.04
2017-11-30T10:53:52.263Z,5.49
2017-11-30T10:56:18.915Z,5.49
2017-11-30T10:58:45.640Z,5.59
2017-11-30T11:01:13.048Z,5.71
2017-11-30T11:03:39.695Z,5.23
2017-11-30T11:06:06.394Z,5.66
2017-11-30T11:08:33.097Z,6.03
2017-11-30T11:10:59.802Z,6.12
2017-11-30T11:13:26.530Z,6.37
2017-11-30T11:15:53.237Z,6.58
2017-11-30T11:18:19.903Z,7.01
2017-11-30T11:20:47.420Z,7.10
2017-11-30T11:23:14.152Z,7.34
2017-11-30T11:25:40.831Z,7.38
2017-11-30T11:28:07.546Z,7.68
2017-11-30T11:30:34.214Z,8.22
2017-11-30T11:33:00.946Z,8.52
2017-11-30T11:35:27.650Z,9.01
2017-11-30T11:37:54.354Z,9.15
2017-11-30T11:40:21.877Z,9.20
2017-11-30T11:42:48.573Z,9.70
2017-11-30T11:45:15.243Z,10.12
2017-11-30T11:47:41.994Z,10.11
2017-11-30T11:50:08.655Z,9.95
2017-11-30T11:52:35.638Z,10.25
2017-11-30T11:55:02.348Z,10.48
2017-11-30T11:57:29.043Z,10.42
2017-11-30T11:59:56.471Z,10.26
2017-11-30T12:02:23.157Z,10.60
2017-11-30T12:04:49.850Z,10.77
2017-11-30T12:07:16.554Z,10.07
2017-11-30T12:09:43.199Z,9.85
2017-11-30T12:12:10.064Z,9.98
2017-11-30T12:14:36.904Z,9.75
2017-11-30T12:17:03.595Z,9.99
2017-11-30T12:19:31.015Z,10.01
2017-11-30T12:21:57.696Z,10.10
2017-11-30T12:24:25.220Z,10.82
2017-11-30T12:26:51.890Z,11.44
2017-11-30T12:29:20.204Z,12.58
2017-11-30T12:31:47.463Z,13.18
2017-11-30T12:34:15.459Z,13.11
2017-11-30T12:36:42.634Z,12.44
2017-11-30T12:39:10.625Z,11.65
2017-11-30T12:41:37.303Z,10.87
2017-11-30T12:44:04.718Z,9.89
2017-11-30T12:46:31.436Z,8.61
2017-11-30T12:48:58.119Z,7.96
2017-11-30T12:51:24.777Z,7.62
2017-11-30T12:53:51.465Z,7.42
2017-11-30T12:56:18.241Z,7.59
2017-11-30T12:58:45.625Z,7.83
2017-11-30T13:01:13.109Z,8.02
2017-11-30T13:03:40.584Z,7.66
2017-11-30T13:06:07.374Z,7.16
2017-11-30T13:08:35.115Z,6.64
2017-11-30T13:11:01.864Z,6.64
2017-11-30T13:13:28.642Z,6.31
2017-11-30T13:15:56.233Z,5.96
2017-11-30T13:18:23.023Z,5.88
2017-11-30T13:20:50.526Z,6.07
2017-11-30T13:23:17.316Z,6.22
2017-11-30T13:25:44.064Z,6.20
2017-11-30T13:28:10.733Z,6.02
2017-11-30T13:30:37.443Z,5.91
2017-11-30T13:33:04.241Z,5.97
2017-11-30T13:35:31.228Z,5.79
2017-11-30T13:37:57.938Z,5.93
2017-11-30T13:40:25.486Z,5.94
2017-11-30T13:42:52.143Z,5.97
2017-11-30T13:45:19.562Z,6.07
2017-11-30T13:47:46.280Z,5.84
2017-11-30T13:50:13.041Z,5.68
2017-11-30T13:52:39.732Z,5.47
2017-11-30T13:55:06.417Z,5.35
2017-11-30T13:57:33.107Z,5.24
2017-11-30T13:59:59.831Z,5.27
2017-11-30T14:02:26.479Z,5.19
2017-11-30T14:04:53.208Z,5.23
2017-11-30T14:07:19.909Z,5.02
2017-11-30T14:09:47.135Z,5.06
2017-11-30T14:12:14.183Z,4.99
2017-11-30T14:14:40.867Z,5.01
2017-11-30T14:17:07.519Z,5.02
2017-11-30T14:19:34.178Z,5.14
2017-11-30T14:22:00.841Z,4.92
2017-11-30T14:24:27.510Z,4.92
2017-11-30T14:26:54.218Z,4.93
2017-11-30T14:29:20.888Z,5.03
2017-11-30T14:31:47.582Z,5.02
2017-11-30T14:34:14.280Z,4.97
2017-11-30T14:36:40.985Z,4.92
2017-11-30T14:39:07.647Z,4.75
2017-11-30T14:41:34.368Z,4.66
2017-11-30T14:44:01.071Z,4.53
2017-11-30T14:46:28.464Z,4.72
2017-11-30T14:48:55.135Z,4.80
2017-11-30T14:51:22.573Z,4.73
2017-11-30T14:53:49.237Z,4.77
2017-11-30T14:56:15.950Z,4.79
2017-11-30T14:58:43.473Z,4.87
2017-11-30T15:01:10.866Z,4.72
2017-11-30T15:03:37.544Z,4.33
2017-11-30T15:06:04.210Z,4.35
2017-11-30T15:08:30.885Z,4.09
2017-11-30T15:10:57.630Z,4.16
2017-11-30T15:13:24.339Z,4.26
2017-11-30T15:15:51.051Z,4.44
2017-11-30T15:18:17.760Z,4.45
2017-11-30T15:20:44.438Z,4.41
2017-11-30T15:23:11.110Z,4.38
2017-11-30T15:25:37.777Z,4.42
2017-11-30T15:28:04.511Z,4.40
2017-11-30T15:30:31.169Z,4.32
2017-11-30T15:33:05.292Z,4.45
2017-11-30T15:35:32.443Z,4.55
2017-11-30T15:37:59.114Z,4.31
2017-11-30T15:40:25.800Z,4.36
2017-11-30T15:42:52.476Z,4.24
2017-11-30T15:45:19.211Z,4.19
2017-11-30T15:47:45.965Z,4.23
2017-11-30T15:50:12.633Z,4.04
2017-11-30T15:52:39.302Z,4.22
2017-11-30T15:55:06.001Z,4.19
2017-11-30T15:57:32.707Z,4.01
2017-11-30T15:59:59.367Z,3.89
2017-11-30T16:02:26.051Z,3.82
2017-11-30T16:04:52.708Z,3.96
2017-11-30T16:07:19.395Z,3.89
2017-11-30T16:09:46.797Z,3.91
2017-11-30T16:12:13.500Z,4.00
2017-11-30T16:14:41.712Z,3.95
2017-11-30T16:17:08.393Z,4.03
2017-11-30T16:19:35.047Z,3.97
2017-11-30T16:22:02.529Z,3.87
2017-11-30T16:24:29.948Z,3.84
2017-11-30T16:26:56.654Z,3.88
2017-11-30T16:29:23.419Z,3.98
2017-11-30T16:31:50.082Z,4.08
2017-11-30T16:34:16.755Z,4.03
2017-11-30T16:36:44.205Z,4.08
2017-11-30T16:39:11.710Z,4.18
2017-11-30T16:41:38.465Z,4.23
2017-11-30T16:44:05.222Z,4.17
2017-11-30T16:46:33.275Z,4.21
2017-11-30T16:49:01.237Z,4.24
2017-11-30T16:51:28.757Z,4.18
2017-11-30T16:53:56.815Z,4.15
2017-11-30T16:56:23.623Z,4.05
2017-11-30T16:58:50.291Z,4.04
2017-11-30T17:01:16.973Z,3.77
2017-11-30T17:03:43.664Z,3.73
2017-11-30T17:06:10.359Z,3.66
2017-11-30T17:08:37.338Z,3.67
2017-11-30T17:11:04.091Z,3.56
2017-11-30T17:13:31.070Z,3.57
2017-11-30T17:15:57.756Z,3.70
2017-11-30T17:18:25.273Z,3.92
2017-11-30T17:20:51.980Z,4.04
2017-11-30T17:23:18.719Z,4.05
2017-11-30T17:25:45.478Z,4.00
2017-11-30T17:28:12.240Z,4.08
2017-11-30T17:30:38.906Z,4.19
2017-11-30T17:33:05.582Z,4.26
2017-11-30T17:35:33.067Z,4.28
2017-11-30T17:37:59.809Z,4.27
2017-11-30T17:40:26.512Z,4.11
2017-11-30T17:42:53.186Z,4.25
2017-11-30T17:45:19.896Z,3.95
2017-11-30T17:47:47.419Z,3.82
2017-11-30T17:50:14.397Z,4.02
2017-11-30T17:52:41.886Z,4.06
2017-11-30T17:55:09.305Z,4.11
2017-11-30T17:57:35.993Z,4.06
2017-11-30T18:00:03.524Z,4.00
2017-11-30T18:02:30.209Z,4.11
2017-11-30T18:04:57.652Z,4.12
2017-11-30T18:07:25.090Z,3.87
2017-11-30T18:09:51.729Z,3.83
2017-11-30T18:12:18.405Z,3.93
2017-11-30T18:14:45.835Z,3.84
2017-11-30T18:17:12.556Z,3.79
2017-11-30T18:19:39.566Z,3.81
2017-11-30T18:22:07.040Z,3.62
2017-11-30T18:24:34.594Z,3.63
2017-11-30T18:27:02.483Z,3.79
2017-11-30T18:29:29.181Z,3.97
2017-11-30T18:31:55.817Z,3.94
2017-11-30T18:34:22.635Z,3.90
2017-11-30T18:36:50.265Z,3.98
2017-11-30T18:39:17.749Z,3.93
2017-11-30T18:41:44.483Z,3.67
2017-11-30T18:44:11.228Z,3.64
2017-11-30T18:46:37.993Z,3.56
2017-11-30T18:49:04.794Z,3.75
2017-11-30T18:51:31.543Z,3.61
2017-11-30T18:53:59.100Z,3.72
2017-11-30T18:56:26.596Z,3.80
2017-11-30T18:58:53.273Z,3.80
2017-11-30T19:01:19.929Z,3.84
2017-11-30T19:03:46.647Z,4.01
2017-11-30T19:06:13.332Z,3.99
2017-11-30T19:08:40.740Z,4.04
2017-11-30T19:11:07.438Z,3.96
2017-11-30T19:13:34.881Z,4.03
2017-11-30T19:16:02.358Z,4.07
2017-11-30T19:18:29.755Z,4.13
2017-11-30T19:20:56.414Z,4.03
2017-11-30T19:23:23.125Z,4.04
2017-11-30T19:25:49.867Z,4.10
2017-11-30T19:28:16.532Z,4.04
2017-11-30T19:30:43.233Z,4.04
2017-11-30T19:33:09.974Z,3.71
2017-11-30T19:35:37.386Z,3.68
2017-11-30T19:38:04.048Z,3.88
2017-11-30T19:40:31.712Z,3.81
2017-11-30T19:42:58.373Z,3.88
2017-11-30T19:45:26.027Z,3.82
2017-11-30T19:47:52.714Z,3.86
2017-11-30T19:50:20.095Z,3.92
2017-11-30T19:52:47.714Z,3.71
2017-11-30T19:55:14.422Z,3.89
2017-11-30T19:57:41.482Z,3.87
2017-11-30T20:00:08.141Z,3.74
2017-11-30T20:02:34.811Z,3.83
2017-11-30T20:05:03.019Z,3.85
2017-11-30T20:07:29.714Z,3.84
2017-11-30T20:09:56.395Z,3.62
2017-11-30T20:12:23.121Z,3.68
2017-11-30T20:14:50.546Z,3.60
2017-11-30T20:17:17.189Z,3.62
2017-11-30T20:19:43.869Z,3.60
2017-11-30T20:22:11.257Z,3.74
2017-11-30T20:24:37.953Z,3.69
2017-11-30T20:27:04.685Z,3.56
2017-11-30T20:29:31.327Z,3.78
2017-11-30T20:31:58.039Z,3.82
2017-11-30T20:34:25.058Z,3.37
2017-11-30T20:36:51.731Z,3.34
2017-11-30T20:39:18.438Z,3.50
2017-11-30T20:41:45.875Z,3.51
2017-11-30T20:44:12.521Z,3.26
2017-11-30T20:46:39.236Z,3.43
2017-11-30T20:49:05.912Z,3.48
2017-11-30T20:51:32.707Z,3.17
2017-11-30T20:53:59.417Z,3.31
2017-11-30T20:56:26.834Z,3.29
2017-11-30T20:58:53.587Z,3.29
2017-11-30T21:01:20.238Z,3.35
2017-11-30T21:03:46.919Z,2.94
2017-11-30T21:06:13.581Z,2.83
2017-11-30T21:08:40.282Z,2.77
2017-11-30T21:11:07.755Z,2.84
2017-11-30T21:13:35.146Z,2.79
2017-11-30T21:16:01.858Z,3.00
2017-11-30T21:18:29.936Z,3.02
2017-11-30T21:20:56.598Z,3.06
2017-11-30T21:23:23.279Z,2.63
2017-11-30T21:25:50.078Z,2.75
2017-11-30T21:28:16.751Z,2.69
2017-11-30T21:30:43.660Z,2.75
2017-11-30T21:33:10.310Z,2.87
2017-11-30T21:35:37.024Z,3.07
2017-11-30T21:38:04.440Z,2.90
2017-11-30T21:40:31.150Z,2.97
2017-11-30T21:42:57.852Z,2.95
2017-11-30T21:45:24.609Z,3.03
2017-11-30T21:47:51.263Z,3.14
2017-11-30T21:50:18.826Z,3.15
2017-11-30T21:52:45.493Z,3.25
2017-11-30T21:55:12.176Z,3.13
2017-11-30T21:57:38.889Z,3.19
2017-11-30T22:00:05.629Z,3.00
2017-11-30T22:02:32.311Z,3.14
2017-11-30T22:04:59.013Z,3.09
2017-11-30T22:07:25.664Z,2.95
2017-11-30T22:09:52.463Z,2.92
2017-11-30T22:12:19.178Z,2.90
2017-11-30T22:14:45.937Z,2.85
2017-11-30T22:17:13.519Z,2.82
2017-11-30T22:19:40.215Z,2.69
2017-11-30T22:22:06.909Z,2.63
2017-11-30T22:24:34.407Z,2.69
2017-11-30T22:27:01.139Z,2.61
2017-11-30T22:29:27.812Z,2.60
2017-11-30T22:31:54.527Z,2.50
2017-11-30T22:34:21.319Z,2.70
2017-11-30T22:36:48.028Z,2.57
2017-11-30T22:39:14.731Z,2.49
2017-11-30T22:41:42.192Z,2.68
2017-11-30T22:44:09.710Z,2.75
2017-11-30T22:46:36.432Z,2.65
2017-11-30T22:49:03.112Z,2.74
2017-11-30T22:51:30.690Z,2.82
2017-11-30T22:53:58.136Z,2.82
2017-11-30T22:56:24.863Z,2.80
2017-11-30T22:58:51.506Z,2.78
2017-11-30T23:01:18.226Z,2.44
2017-11-30T23:03:44.931Z,2.57
2017-11-30T23:06:11.633Z,2.72
2017-11-30T23:08:39.164Z,2.64
2017-11-30T23:11:05.822Z,2.65
2017-11-30T23:13:32.485Z,2.44
2017-11-30T23:15:59.192Z,2.40
2017-11-30T23:18:25.910Z,2.46
2017-11-30T23:20:52.629Z,2.63
2017-11-30T23:23:19.420Z,2.67
2017-11-30T23:25:46.847Z,2.54
2017-11-30T23:28:13.582Z,2.70
2017-11-30T23:30:40.299Z,2.74
2017-11-30T23:33:06.966Z,2.48
2017-11-30T23:35:33.654Z,2.21
2017-11-30T23:38:00.381Z,2.18
2017-11-30T23:40:27.049Z,2.39
2017-11-30T23:42:54.466Z,2.59
2017-11-30T23:45:21.174Z,2.72
2017-11-30T23:47:47.824Z,2.78
2017-11-30T23:50:14.521Z,2.80
2017-11-30T23:52:41.958Z,2.81
2017-11-30T23:55:08.653Z,2.84
2017-11-30T23:57:35.335Z,2.85
